Weather at Aérodrome de Bordeaux-Léognan-Saucats

Public forecast

Using degrees Celsius for public forecast. Weather courtesy of forecast.io.

Closest aviation weather report (METAR) to Aérodrome de Bordeaux-Léognan-Saucats

Closest report is Bordeaux-Mérignac Airport, 9.2 nm (17.1 km) NNW.

2024/07/17 19:30 (retrieved 25 minutes ago)

LFBD 171930Z AUTO 12007KT CAVOK 25/14 Q1017 NOSIG

Closest aviation forecast (TAF) to Aérodrome de Bordeaux-Léognan-Saucats

Closest forecast is Bordeaux-Mérignac Airport, 9.2 nm (17.1 km) NNW.

2024/07/17 18:21 (retrieved 2 hours ago)

TAF LFBD 171700Z 1718/1824 12010KT CAVOK TX34/1815Z TN17/1805Z BECMG 1718/1721 VRB03KT BECMG 1812/1815 09010KT BECMG 1818/1820 33005KT